createdAt,value
2024-02-20T00:00:07.310Z,23.61
2024-02-20T00:01:07.458Z,23.60
2024-02-20T00:02:07.554Z,23.61
2024-02-20T00:03:07.406Z,23.60
2024-02-20T00:04:07.464Z,23.61
2024-02-20T00:05:07.491Z,23.61
2024-02-20T00:06:07.498Z,23.61
2024-02-20T00:07:07.566Z,23.61
2024-02-20T00:08:07.536Z,23.60
2024-02-20T00:09:07.550Z,23.60
2024-02-20T00:10:07.689Z,23.60
2024-02-20T00:11:07.645Z,23.61
2024-02-20T00:12:07.639Z,23.61
2024-02-20T00:13:07.718Z,23.60
2024-02-20T00:14:07.706Z,23.60
2024-02-20T00:15:07.718Z,23.60
2024-02-20T00:16:07.817Z,23.60
2024-02-20T00:17:07.780Z,23.59
2024-02-20T00:18:07.865Z,23.59
2024-02-20T00:19:07.944Z,23.59
2024-02-20T00:20:08.016Z,23.59
2024-02-20T00:21:07.904Z,23.58
2024-02-20T00:22:07.970Z,23.59
2024-02-20T00:23:07.938Z,23.57
2024-02-20T00:24:07.992Z,23.58
2024-02-20T00:25:08.031Z,23.57
2024-02-20T00:26:08.023Z,23.58
2024-02-20T00:27:08.053Z,23.57
2024-02-20T00:28:08.098Z,23.57
2024-02-20T00:29:08.134Z,23.57
2024-02-20T00:30:08.156Z,23.57
2024-02-20T00:31:08.218Z,23.57
2024-02-20T00:32:08.204Z,23.57
2024-02-20T00:33:08.282Z,23.56
2024-02-20T00:34:08.348Z,23.56
2024-02-20T00:35:08.386Z,23.57
2024-02-20T00:36:08.337Z,23.56
2024-02-20T00:37:08.360Z,23.55
2024-02-20T00:38:08.383Z,23.55
2024-02-20T00:39:08.517Z,23.55
2024-02-20T00:40:08.526Z,23.55
2024-02-20T00:41:08.479Z,23.55
2024-02-20T00:42:08.509Z,23.55
2024-02-20T00:43:08.551Z,23.55
2024-02-20T00:44:08.595Z,23.55
2024-02-20T00:45:08.605Z,23.54
2024-02-20T00:46:08.637Z,23.54
2024-02-20T00:47:08.660Z,23.55
2024-02-20T00:48:08.748Z,23.54
2024-02-20T00:49:08.922Z,23.54
2024-02-20T00:50:08.803Z,23.54
2024-02-20T00:51:08.797Z,23.54
2024-02-20T00:52:09.020Z,23.53
2024-02-20T00:53:08.847Z,23.53
2024-02-20T00:54:08.878Z,23.53
2024-02-20T00:55:09.020Z,23.53
2024-02-20T00:56:08.936Z,23.53
2024-02-20T00:57:08.963Z,23.53
2024-02-20T00:58:09.074Z,23.53
2024-02-20T00:59:09.035Z,23.53
2024-02-20T01:00:09.072Z,23.52
2024-02-20T01:01:09.240Z,23.52
2024-02-20T01:02:09.175Z,23.53
2024-02-20T01:03:09.213Z,23.53
2024-02-20T01:04:09.323Z,23.53
2024-02-20T01:05:09.242Z,23.53
2024-02-20T01:06:09.329Z,23.52
2024-02-20T01:07:09.486Z,23.51
2024-02-20T01:08:09.336Z,23.52
2024-02-20T01:09:09.379Z,23.52
2024-02-20T01:10:09.450Z,23.52
2024-02-20T01:11:09.440Z,23.51
2024-02-20T01:12:09.518Z,23.51
2024-02-20T01:13:09.525Z,23.52
2024-02-20T01:14:09.530Z,23.52
2024-02-20T01:15:09.555Z,23.51
2024-02-20T01:16:09.670Z,23.51
2024-02-20T01:17:09.642Z,23.51
2024-02-20T01:18:09.717Z,23.50
2024-02-20T01:19:09.901Z,23.51
2024-02-20T01:20:09.813Z,23.50
2024-02-20T01:21:09.801Z,23.50
2024-02-20T01:22:09.882Z,23.51
2024-02-20T01:23:10.077Z,23.51
2024-02-20T01:24:09.913Z,23.50
2024-02-20T01:25:09.957Z,23.51
2024-02-20T01:26:09.976Z,23.51
2024-02-20T01:27:10.018Z,23.49
2024-02-20T01:28:10.069Z,23.50
2024-02-20T01:29:10.123Z,23.49
2024-02-20T01:30:10.117Z,23.50
2024-02-20T01:31:10.174Z,23.50
2024-02-20T01:32:10.186Z,23.49
2024-02-20T01:33:10.269Z,23.49
2024-02-20T01:34:10.300Z,23.49
2024-02-20T01:35:10.463Z,23.49
2024-02-20T01:36:10.331Z,23.48
2024-02-20T01:37:10.381Z,23.49
2024-02-20T01:38:10.419Z,23.49
2024-02-20T01:39:10.452Z,23.49
2024-02-20T01:40:10.554Z,23.49
2024-02-20T01:41:10.521Z,23.48
2024-02-20T01:42:10.565Z,23.49
2024-02-20T01:43:10.736Z,23.49
2024-02-20T01:44:10.698Z,23.49
2024-02-20T01:45:10.690Z,23.48
2024-02-20T01:46:10.858Z,23.48
2024-02-20T01:47:10.754Z,23.48
2024-02-20T01:48:10.840Z,23.48
2024-02-20T01:49:11.072Z,23.48
2024-02-20T01:50:11.042Z,23.48
2024-02-20T01:51:10.922Z,23.48
2024-02-20T01:52:10.998Z,23.48
2024-02-20T01:53:10.993Z,23.47
2024-02-20T01:54:11.041Z,23.47
2024-02-20T01:55:11.104Z,23.47
2024-02-20T01:56:11.118Z,23.47
2024-02-20T01:57:11.166Z,23.46
2024-02-20T01:58:11.220Z,23.47
2024-02-20T01:59:11.228Z,23.47
2024-02-20T02:00:11.263Z,23.48
2024-02-20T02:01:11.470Z,23.48
2024-02-20T02:02:11.340Z,23.47
2024-02-20T02:03:11.377Z,23.47
2024-02-20T02:04:11.506Z,23.47
2024-02-20T02:05:11.727Z,23.47
2024-02-20T02:06:11.537Z,23.47
2024-02-20T02:07:11.657Z,23.47
2024-02-20T02:08:11.560Z,23.46
2024-02-20T02:09:11.602Z,23.47
2024-02-20T02:10:11.682Z,23.46
2024-02-20T02:11:11.730Z,23.46
2024-02-20T02:12:11.716Z,23.46
2024-02-20T02:13:11.761Z,23.47
2024-02-20T02:14:11.799Z,23.47
2024-02-20T02:15:11.846Z,23.47
2024-02-20T02:16:11.926Z,23.47
2024-02-20T02:17:11.915Z,23.47
2024-02-20T02:18:12.083Z,23.46
2024-02-20T02:19:12.091Z,23.45
2024-02-20T02:20:12.116Z,23.45
2024-02-20T02:21:12.085Z,23.46
2024-02-20T02:22:12.159Z,23.46
2024-02-20T02:23:12.158Z,23.46
2024-02-20T02:24:12.200Z,23.46
2024-02-20T02:25:12.292Z,23.46
2024-02-20T02:26:12.292Z,23.45
2024-02-20T02:27:12.330Z,23.46
2024-02-20T02:28:12.401Z,23.45
2024-02-20T02:29:12.421Z,23.45
2024-02-20T02:30:12.436Z,23.45
2024-02-20T02:31:12.591Z,23.45
2024-02-20T02:32:12.517Z,23.45
2024-02-20T02:33:12.654Z,23.45
2024-02-20T02:34:12.636Z,23.45
2024-02-20T02:35:12.809Z,23.45
2024-02-20T02:36:12.677Z,23.44
2024-02-20T02:37:12.780Z,23.44
2024-02-20T02:38:12.759Z,23.45
2024-02-20T02:39:12.805Z,23.44
2024-02-20T02:40:12.896Z,23.44
2024-02-20T02:41:12.893Z,23.44
2024-02-20T02:42:12.928Z,23.45
2024-02-20T02:43:12.991Z,23.44
2024-02-20T02:44:13.029Z,23.44
2024-02-20T02:45:13.052Z,23.44
2024-02-20T02:46:13.116Z,23.44
2024-02-20T02:47:13.151Z,23.44
2024-02-20T02:48:13.282Z,23.44
2024-02-20T02:49:13.431Z,23.44
2024-02-20T02:50:13.392Z,23.44
2024-02-20T02:51:13.290Z,23.43
2024-02-20T02:52:13.343Z,23.44
2024-02-20T02:53:13.366Z,23.44
2024-02-20T02:54:13.422Z,23.44
2024-02-20T02:55:13.511Z,23.43
2024-02-20T02:56:13.506Z,23.44
2024-02-20T02:57:13.569Z,23.44
2024-02-20T02:58:13.684Z,23.43
2024-02-20T02:59:13.637Z,23.44
2024-02-20T03:00:13.675Z,23.44
2024-02-20T03:01:13.763Z,23.43
2024-02-20T03:02:13.848Z,23.43
2024-02-20T03:03:13.849Z,23.43
2024-02-20T03:04:13.930Z,23.43
2024-02-20T03:05:13.897Z,23.43
2024-02-20T03:06:13.981Z,23.43
2024-02-20T03:07:14.060Z,23.42
2024-02-20T03:08:14.043Z,23.43
2024-02-20T03:09:14.608Z,23.42
2024-02-20T03:10:14.118Z,23.43
2024-02-20T03:11:14.182Z,23.42
2024-02-20T03:12:14.200Z,23.42
2024-02-20T03:13:14.264Z,23.43
2024-02-20T03:14:14.282Z,23.43
2024-02-20T03:15:14.329Z,23.43
2024-02-20T03:16:14.396Z,23.43
2024-02-20T03:17:14.407Z,23.43
2024-02-20T03:18:14.479Z,23.43
2024-02-20T03:19:14.576Z,23.42
2024-02-20T03:20:14.535Z,23.43
2024-02-20T03:21:14.588Z,23.43
2024-02-20T03:22:14.656Z,23.42
2024-02-20T03:23:14.737Z,23.43
2024-02-20T03:24:14.703Z,23.43
2024-02-20T03:25:14.765Z,23.44
2024-02-20T03:26:14.792Z,23.44
2024-02-20T03:27:14.827Z,23.44
2024-02-20T03:28:14.921Z,23.44
2024-02-20T03:29:14.905Z,23.45
2024-02-20T03:30:14.955Z,23.44
2024-02-20T03:31:15.034Z,23.44
2024-02-20T03:32:15.046Z,23.44
2024-02-20T03:33:15.176Z,23.44
2024-02-20T03:34:15.268Z,23.45
2024-02-20T03:35:15.205Z,23.44
2024-02-20T03:36:15.213Z,23.44
2024-02-20T03:37:15.275Z,23.44
2024-02-20T03:38:15.308Z,23.44
2024-02-20T03:39:15.312Z,23.43
2024-02-20T03:40:15.398Z,23.43
2024-02-20T03:41:15.412Z,23.43
2024-02-20T03:42:15.438Z,23.43
2024-02-20T03:43:15.562Z,23.44
2024-02-20T03:44:15.530Z,23.43
2024-02-20T03:45:15.568Z,23.42
2024-02-20T03:46:15.652Z,23.43
2024-02-20T03:47:15.644Z,23.42
2024-02-20T03:48:15.880Z,23.43
2024-02-20T03:49:16.056Z,23.43
2024-02-20T03:50:15.961Z,23.42
2024-02-20T03:51:15.827Z,23.42
2024-02-20T03:52:15.897Z,23.43
2024-02-20T03:53:15.913Z,23.43
2024-02-20T03:54:15.952Z,23.44
2024-02-20T03:55:16.010Z,23.44
2024-02-20T03:56:16.135Z,23.43
2024-02-20T03:57:16.545Z,23.44
2024-02-20T03:58:16.180Z,23.45
2024-02-20T03:59:16.201Z,23.45
2024-02-20T04:00:16.511Z,23.46
2024-02-20T04:01:16.332Z,23.46
2024-02-20T04:02:16.265Z,23.46
2024-02-20T04:03:16.476Z,23.47
2024-02-20T04:04:16.468Z,23.48
2024-02-20T04:05:19.006Z,23.50
2024-02-20T04:06:16.432Z,23.50
2024-02-20T04:07:16.409Z,23.52
2024-02-20T04:08:16.380Z,23.54
2024-02-20T04:09:16.382Z,23.55
2024-02-20T04:10:16.576Z,23.56
2024-02-20T04:11:16.381Z,23.57
2024-02-20T04:12:23.542Z,23.57
2024-02-20T04:13:23.550Z,23.59
2024-02-20T04:14:23.542Z,23.61
2024-02-20T04:15:23.554Z,23.62
2024-02-20T04:16:23.574Z,23.63
2024-02-20T04:17:23.547Z,23.64
2024-02-20T04:18:23.604Z,23.66
2024-02-20T04:19:23.676Z,23.67
2024-02-20T04:20:23.569Z,23.68
2024-02-20T04:21:23.555Z,23.69
2024-02-20T04:22:23.587Z,23.70
2024-02-20T04:23:23.546Z,23.71
2024-02-20T04:24:23.552Z,23.72
2024-02-20T04:25:23.610Z,23.74
2024-02-20T04:26:23.554Z,23.75
2024-02-20T04:27:23.545Z,23.77
2024-02-20T04:28:23.582Z,23.78
2024-02-20T04:29:23.668Z,23.79
2024-02-20T04:30:23.576Z,23.80
2024-02-20T04:31:30.783Z,23.79
2024-02-20T04:32:30.742Z,23.82
2024-02-20T04:33:30.786Z,23.82
2024-02-20T04:34:30.800Z,23.82
2024-02-20T04:35:30.721Z,23.84
2024-02-20T04:36:30.727Z,23.84
2024-02-20T04:37:30.832Z,23.85
2024-02-20T04:38:30.720Z,23.87
2024-02-20T04:39:30.719Z,23.88
2024-02-20T04:40:30.752Z,23.89
2024-02-20T04:41:30.716Z,23.90
2024-02-20T04:42:30.723Z,23.91
2024-02-20T04:43:30.800Z,23.91
2024-02-20T04:44:30.717Z,23.92
2024-02-20T04:45:30.723Z,23.93
2024-02-20T04:46:30.899Z,23.93
2024-02-20T04:47:30.755Z,23.94
2024-02-20T04:48:30.895Z,23.94
2024-02-20T04:49:30.841Z,23.96
2024-02-20T04:50:30.729Z,23.95
2024-02-20T04:51:30.724Z,23.97
2024-02-20T04:52:30.769Z,23.97
2024-02-20T04:53:30.730Z,23.98
2024-02-20T04:54:30.727Z,23.98
2024-02-20T04:55:30.812Z,23.98
2024-02-20T04:56:30.733Z,23.99
2024-02-20T04:57:30.735Z,23.99
2024-02-20T04:58:30.789Z,23.99
2024-02-20T04:59:30.734Z,24.00
2024-02-20T05:00:30.741Z,24.00
2024-02-20T05:01:30.930Z,24.01
2024-02-20T05:02:30.868Z,24.01
2024-02-20T05:03:30.975Z,24.02
2024-02-20T05:04:31.164Z,24.03
2024-02-20T05:05:31.133Z,24.03
2024-02-20T05:06:31.150Z,24.03
2024-02-20T05:07:31.220Z,24.03
2024-02-20T05:08:31.251Z,24.03
2024-02-20T05:09:31.320Z,24.04
2024-02-20T05:10:31.462Z,24.03
2024-02-20T05:11:31.472Z,24.04
2024-02-20T05:12:31.517Z,24.04
2024-02-20T05:13:31.627Z,24.04
2024-02-20T05:14:31.663Z,24.05
2024-02-20T05:15:31.716Z,24.05
2024-02-20T05:16:31.906Z,24.05
2024-02-20T05:17:32.913Z,24.05
2024-02-20T05:18:31.936Z,24.06
2024-02-20T05:19:32.008Z,24.06
2024-02-20T05:20:32.093Z,24.06
2024-02-20T05:21:32.178Z,24.06
2024-02-20T05:22:32.178Z,24.07
2024-02-20T05:23:32.236Z,24.06
2024-02-20T05:24:32.285Z,24.07
2024-02-20T05:25:32.399Z,24.07
2024-02-20T05:26:32.414Z,24.07
2024-02-20T05:27:32.457Z,24.07
2024-02-20T05:28:32.551Z,24.07
2024-02-20T05:29:32.586Z,24.08
2024-02-20T05:30:32.658Z,24.07
2024-02-20T05:31:32.894Z,24.07
2024-02-20T05:32:32.886Z,24.07
2024-02-20T05:33:32.881Z,24.07
2024-02-20T05:34:32.967Z,24.07
2024-02-20T05:35:35.196Z,24.07
2024-02-20T05:36:33.267Z,24.07
2024-02-20T05:37:33.027Z,24.08
2024-02-20T05:38:32.973Z,24.07
2024-02-20T05:39:32.977Z,24.07
2024-02-20T05:40:33.008Z,24.07
2024-02-20T05:41:33.044Z,24.08
2024-02-20T05:42:32.974Z,24.07
2024-02-20T05:43:33.118Z,24.07
2024-02-20T05:44:32.987Z,24.07
2024-02-20T05:45:32.992Z,24.08
2024-02-20T05:46:32.995Z,24.08
2024-02-20T05:47:33.045Z,24.07
2024-02-20T05:48:33.104Z,24.07
2024-02-20T05:49:33.102Z,24.08
2024-02-20T05:50:33.161Z,24.07
2024-02-20T05:51:33.014Z,24.07
2024-02-20T05:52:33.895Z,24.07
2024-02-20T05:53:32.978Z,24.07
2024-02-20T05:54:32.982Z,24.07
2024-02-20T05:55:33.056Z,24.07
2024-02-20T05:56:33.002Z,24.07
2024-02-20T05:57:32.985Z,24.07
2024-02-20T05:58:33.095Z,24.08
2024-02-20T05:59:32.997Z,24.08
2024-02-20T06:00:33.094Z,24.08
2024-02-20T06:01:33.127Z,24.08
2024-02-20T06:02:33.916Z,24.08
2024-02-20T06:03:33.017Z,24.09
2024-02-20T06:04:33.146Z,24.08
2024-02-20T06:05:33.361Z,24.07
2024-02-20T06:06:33.246Z,24.07
2024-02-20T06:07:33.259Z,24.07
2024-02-20T06:08:33.288Z,24.08
2024-02-20T06:09:33.364Z,24.08
2024-02-20T06:10:33.463Z,24.08
2024-02-20T06:11:33.567Z,24.07
2024-02-20T06:12:33.566Z,24.07
2024-02-20T06:13:33.689Z,24.08
2024-02-20T06:14:33.713Z,24.07
2024-02-20T06:15:33.764Z,24.07
2024-02-20T06:16:33.847Z,24.06
2024-02-20T06:17:33.944Z,24.07
2024-02-20T06:18:34.001Z,24.08
2024-02-20T06:19:34.080Z,24.08
2024-02-20T06:20:34.110Z,24.08
2024-02-20T06:21:34.168Z,24.08
2024-02-20T06:22:34.316Z,24.07
2024-02-20T06:23:35.248Z,24.07
2024-02-20T06:24:34.271Z,24.07
2024-02-20T06:25:34.336Z,24.08
2024-02-20T06:26:34.242Z,24.08
2024-02-20T06:27:34.273Z,24.09
2024-02-20T06:28:34.279Z,24.10
2024-02-20T06:29:34.284Z,24.11
2024-02-20T06:30:34.313Z,24.13
2024-02-20T06:31:34.430Z,24.16
2024-02-20T06:32:35.201Z,24.18
2024-02-20T06:33:34.514Z,24.22
2024-02-20T06:34:34.647Z,24.26
2024-02-20T06:35:34.537Z,24.30
2024-02-20T06:36:34.605Z,24.33
2024-02-20T06:37:34.627Z,24.38
2024-02-20T06:38:34.624Z,24.43
2024-02-20T06:39:34.646Z,24.46
2024-02-20T06:40:34.679Z,24.50
2024-02-20T06:41:34.709Z,24.55
2024-02-20T06:42:34.718Z,24.59
2024-02-20T06:43:34.877Z,24.63
2024-02-20T06:44:34.723Z,24.67
2024-02-20T06:45:35.295Z,24.70
2024-02-20T06:46:34.770Z,24.73
2024-02-20T06:47:34.858Z,24.76
2024-02-20T06:48:34.833Z,24.81
2024-02-20T06:49:34.891Z,24.83
2024-02-20T06:50:34.861Z,24.87
2024-02-20T06:51:34.851Z,24.89
2024-02-20T06:52:35.005Z,24.92
2024-02-20T06:53:34.946Z,24.95
2024-02-20T06:54:35.001Z,24.98
2024-02-20T06:55:35.086Z,25.01
2024-02-20T06:56:35.122Z,25.04
2024-02-20T06:57:35.258Z,25.06
2024-02-20T06:58:35.285Z,25.09
2024-02-20T06:59:35.306Z,25.12
2024-02-20T07:00:35.490Z,25.15
2024-02-20T07:01:35.506Z,25.19
2024-02-20T07:02:35.468Z,25.21
2024-02-20T07:03:35.544Z,25.24
2024-02-20T07:04:35.680Z,25.26
2024-02-20T07:05:36.749Z,25.28
2024-02-20T07:06:36.376Z,25.31
2024-02-20T07:07:35.729Z,25.34
2024-02-20T07:08:35.601Z,25.37
2024-02-20T07:09:35.595Z,25.38
2024-02-20T07:10:35.659Z,25.40
2024-02-20T07:11:35.658Z,25.42
2024-02-20T07:12:35.611Z,25.43
2024-02-20T07:13:35.625Z,25.46
2024-02-20T07:14:35.613Z,25.47
2024-02-20T07:15:35.606Z,25.50
2024-02-20T07:16:35.661Z,25.51
2024-02-20T07:17:35.716Z,25.54
2024-02-20T07:18:35.736Z,25.57
2024-02-20T07:19:35.819Z,25.58
2024-02-20T07:20:35.751Z,25.59
2024-02-20T07:21:35.763Z,25.61
2024-02-20T07:22:35.796Z,25.64
2024-02-20T07:23:35.803Z,25.68
2024-02-20T07:24:36.401Z,25.72
2024-02-20T07:25:35.926Z,25.76
2024-02-20T07:26:36.823Z,25.81
2024-02-20T07:27:35.907Z,25.86
2024-02-20T07:28:36.963Z,25.89
2024-02-20T07:29:35.917Z,25.92
2024-02-20T07:30:35.931Z,25.94
2024-02-20T07:31:36.633Z,25.95
2024-02-20T07:32:36.901Z,25.97
2024-02-20T07:33:37.710Z,25.99
2024-02-20T07:34:35.957Z,25.99
2024-02-20T07:35:37.064Z,26.01
2024-02-20T07:36:35.916Z,26.01
2024-02-20T07:37:37.449Z,26.03
2024-02-20T07:38:36.935Z,26.04
2024-02-20T07:39:36.948Z,26.04
2024-02-20T07:40:36.070Z,26.06
2024-02-20T07:41:37.003Z,26.08
2024-02-20T07:42:35.924Z,26.08
2024-02-20T07:43:38.181Z,26.09
2024-02-20T07:44:36.052Z,26.10
2024-02-20T07:45:36.085Z,26.10
2024-02-20T07:46:36.203Z,26.11
2024-02-20T07:47:36.633Z,26.12
2024-02-20T07:48:36.423Z,26.13
2024-02-20T07:49:36.504Z,26.15
2024-02-20T07:50:36.484Z,26.16
2024-02-20T07:51:36.491Z,26.17
2024-02-20T07:52:36.565Z,26.18
2024-02-20T07:53:36.601Z,26.20
2024-02-20T07:54:36.706Z,26.21
2024-02-20T07:55:36.771Z,26.23
2024-02-20T07:56:36.814Z,26.24
2024-02-20T07:57:36.882Z,26.25
2024-02-20T07:58:40.754Z,26.26
2024-02-20T07:59:38.908Z,26.26
2024-02-20T08:00:36.956Z,26.26
2024-02-20T08:01:37.079Z,26.25
2024-02-20T08:02:36.959Z,26.25
2024-02-20T08:03:36.972Z,26.24
2024-02-20T08:04:37.099Z,26.23
2024-02-20T08:05:37.095Z,26.23
2024-02-20T08:06:37.010Z,26.23
2024-02-20T08:07:39.002Z,26.23
2024-02-20T08:08:38.929Z,26.23
2024-02-20T08:09:37.139Z,26.23
2024-02-20T08:10:37.155Z,26.24
2024-02-20T08:11:37.162Z,26.23
2024-02-20T08:12:37.054Z,26.24
2024-02-20T08:13:37.156Z,26.24
2024-02-20T08:14:37.050Z,26.23
2024-02-20T08:15:37.834Z,26.23
2024-02-20T08:16:37.132Z,26.23
2024-02-20T08:17:37.951Z,26.22
2024-02-20T08:18:37.255Z,26.22
2024-02-20T08:19:37.475Z,26.21
2024-02-20T08:20:37.380Z,26.21
2024-02-20T08:21:37.431Z,26.19
2024-02-20T08:22:37.503Z,26.17
2024-02-20T08:23:37.565Z,26.15
2024-02-20T08:24:37.623Z,26.12
2024-02-20T08:25:37.687Z,26.10
2024-02-20T08:26:37.745Z,26.07
2024-02-20T08:27:37.832Z,26.04
2024-02-20T08:28:41.301Z,26.02
2024-02-20T08:29:38.027Z,25.99
2024-02-20T08:30:38.430Z,25.97
2024-02-20T08:31:37.895Z,25.94
2024-02-20T08:32:37.862Z,25.91
2024-02-20T08:33:37.925Z,25.89
2024-02-20T08:34:37.903Z,25.87
2024-02-20T08:35:37.933Z,25.85
2024-02-20T08:36:37.903Z,25.83
2024-02-20T08:37:37.921Z,25.79
2024-02-20T08:38:37.840Z,25.78
2024-02-20T08:39:37.840Z,25.76
2024-02-20T08:40:37.912Z,25.73
2024-02-20T08:41:37.942Z,25.71
2024-02-20T08:42:37.854Z,25.69
2024-02-20T08:43:37.876Z,25.66
2024-02-20T08:44:37.903Z,25.65
2024-02-20T08:45:37.845Z,25.63
2024-02-20T08:46:37.936Z,25.62
2024-02-20T08:47:37.927Z,25.60
2024-02-20T08:48:37.864Z,25.59
2024-02-20T08:49:37.916Z,25.58
2024-02-20T08:50:37.881Z,25.57
2024-02-20T08:51:37.947Z,25.56
2024-02-20T08:52:38.014Z,25.56
2024-02-20T08:53:38.036Z,25.55
2024-02-20T08:54:38.112Z,25.54
2024-02-20T08:55:38.260Z,25.53
2024-02-20T08:56:38.223Z,25.53
2024-02-20T08:57:38.281Z,25.51
2024-02-20T08:58:38.349Z,25.50
2024-02-20T08:59:38.399Z,25.51
2024-02-20T09:00:38.557Z,25.51
2024-02-20T09:01:38.626Z,25.53
2024-02-20T09:02:38.596Z,25.71
2024-02-20T09:03:38.675Z,26.32
2024-02-20T09:04:38.749Z,26.34
2024-02-20T09:05:38.898Z,27.20
2024-02-20T09:06:38.812Z,27.22
2024-02-20T09:07:38.877Z,27.61
2024-02-20T09:08:38.865Z,27.23
2024-02-20T09:09:38.922Z,26.91
2024-02-20T09:10:39.111Z,26.73
2024-02-20T09:11:39.080Z,26.80
2024-02-20T09:12:39.073Z,27.25
2024-02-20T09:13:39.166Z,27.63
2024-02-20T09:14:39.206Z,27.48
2024-02-20T09:15:39.260Z,26.32
2024-02-20T09:16:39.425Z,25.46
2024-02-20T09:17:39.334Z,24.22
2024-02-20T09:18:39.422Z,23.07
2024-02-20T09:19:39.620Z,22.36
2024-02-20T09:20:39.531Z,21.81
2024-02-20T09:21:39.490Z,20.44
2024-02-20T09:22:39.589Z,19.26
2024-02-20T09:23:40.519Z,18.50
2024-02-20T09:24:39.527Z,18.32
2024-02-20T09:25:39.586Z,18.49
2024-02-20T09:26:39.525Z,19.92
2024-02-20T09:27:39.547Z,22.94
2024-02-20T09:28:39.573Z,25.77
2024-02-20T09:29:40.451Z,27.45
2024-02-20T09:30:39.537Z,26.40
2024-02-20T09:31:39.603Z,25.53
2024-02-20T09:32:39.556Z,24.99
2024-02-20T09:33:39.643Z,24.66
2024-02-20T09:34:39.620Z,24.45
2024-02-20T09:35:39.568Z,24.31
2024-02-20T09:36:40.488Z,24.27
2024-02-20T09:37:39.634Z,24.28
2024-02-20T09:38:39.649Z,24.42
2024-02-20T09:39:39.658Z,24.94
2024-02-20T09:40:39.752Z,26.21
2024-02-20T09:41:39.749Z,27.37
2024-02-20T09:42:41.760Z,27.06
2024-02-20T09:43:39.819Z,26.59
2024-02-20T09:44:39.849Z,26.40
2024-02-20T09:45:39.811Z,27.97
2024-02-20T09:46:39.886Z,30.85
2024-02-20T09:47:39.832Z,31.96
2024-02-20T09:48:39.893Z,33.77
2024-02-20T09:49:39.940Z,35.11
2024-02-20T09:50:39.820Z,36.23
2024-02-20T09:51:40.884Z,37.04
2024-02-20T09:52:39.938Z,37.64
2024-02-20T09:53:39.869Z,37.94
2024-02-20T09:54:39.817Z,37.52
2024-02-20T09:55:39.857Z,38.13
2024-02-20T09:56:39.825Z,38.55
2024-02-20T09:57:39.829Z,38.85
2024-02-20T09:58:39.878Z,39.07
2024-02-20T09:59:39.828Z,39.24
2024-02-20T10:00:39.905Z,39.40
2024-02-20T10:01:40.583Z,39.54
2024-02-20T10:02:39.838Z,39.65
2024-02-20T10:03:40.385Z,39.74
2024-02-20T10:04:40.039Z,39.84
2024-02-20T10:05:40.084Z,39.96
2024-02-20T10:06:40.034Z,40.06
2024-02-20T10:07:40.029Z,40.14
2024-02-20T10:08:40.040Z,40.11
2024-02-20T10:09:40.025Z,39.49
2024-02-20T10:10:42.044Z,37.91
2024-02-20T10:11:40.237Z,36.12
2024-02-20T10:12:40.159Z,34.69
2024-02-20T10:13:40.200Z,33.63
2024-02-20T10:14:40.191Z,32.82
2024-02-20T10:15:40.226Z,32.20
2024-02-20T10:16:44.163Z,31.70
2024-02-20T10:17:40.287Z,31.30
2024-02-20T10:18:40.271Z,30.93
2024-02-20T10:19:40.351Z,30.62
2024-02-20T10:20:40.398Z,30.41
2024-02-20T10:21:40.266Z,30.04
2024-02-20T10:22:42.377Z,29.66
2024-02-20T10:23:40.295Z,29.18
2024-02-20T10:24:40.277Z,28.77
2024-02-20T10:25:40.356Z,28.26
2024-02-20T10:26:40.377Z,27.90
2024-02-20T10:27:40.292Z,27.52
2024-02-20T10:28:40.308Z,27.15
2024-02-20T10:29:40.303Z,26.86
2024-02-20T10:30:40.281Z,26.67
2024-02-20T10:31:40.327Z,26.51
2024-02-20T10:32:40.352Z,26.32
2024-02-20T10:33:40.436Z,26.19
2024-02-20T10:34:40.398Z,26.08
2024-02-20T10:35:40.452Z,25.95
2024-02-20T10:36:40.290Z,25.87
2024-02-20T10:37:40.938Z,25.86
2024-02-20T10:38:44.431Z,25.86
2024-02-20T10:39:41.401Z,25.86
2024-02-20T10:40:40.363Z,25.89
2024-02-20T10:41:40.387Z,25.92
2024-02-20T10:42:40.296Z,25.96
2024-02-20T10:43:40.374Z,26.00
2024-02-20T10:44:40.316Z,26.04
2024-02-20T10:45:40.301Z,26.09
2024-02-20T10:46:40.450Z,26.14
2024-02-20T10:47:40.348Z,26.19
2024-02-20T10:48:40.349Z,26.24
2024-02-20T10:49:40.392Z,26.28
2024-02-20T10:50:40.372Z,26.33
2024-02-20T10:51:40.323Z,26.37
2024-02-20T10:52:40.921Z,26.41
2024-02-20T10:53:40.408Z,26.45
2024-02-20T10:54:46.632Z,26.49
2024-02-20T10:55:41.508Z,26.53
2024-02-20T10:56:40.458Z,26.55
2024-02-20T10:57:40.516Z,26.57
2024-02-20T10:58:40.508Z,26.60
2024-02-20T10:59:40.467Z,26.63
2024-02-20T11:00:43.030Z,26.65
2024-02-20T11:01:41.035Z,26.67
2024-02-20T11:02:41.003Z,26.70
2024-02-20T11:03:49.230Z,26.72
2024-02-20T11:04:41.556Z,26.73
2024-02-20T11:05:40.639Z,26.74
2024-02-20T11:06:41.709Z,26.76
2024-02-20T11:07:40.554Z,26.78
2024-02-20T11:08:40.555Z,26.79
2024-02-20T11:09:40.488Z,26.84
2024-02-20T11:10:41.014Z,26.91
2024-02-20T11:11:40.525Z,26.96
2024-02-20T11:12:40.561Z,27.03
2024-02-20T11:13:40.532Z,27.09
2024-02-20T11:14:40.989Z,27.14
2024-02-20T11:15:40.481Z,27.17
2024-02-20T11:16:48.000Z,27.18
2024-02-20T11:17:41.602Z,27.18
2024-02-20T11:18:40.528Z,27.16
2024-02-20T11:19:40.707Z,27.14
2024-02-20T11:20:40.486Z,27.13
2024-02-20T11:21:40.519Z,27.09
2024-02-20T11:22:40.575Z,27.07
2024-02-20T11:23:40.502Z,27.05
2024-02-20T11:24:40.506Z,27.02
2024-02-20T11:25:40.669Z,27.00
2024-02-20T11:26:40.515Z,26.98
2024-02-20T11:27:40.504Z,26.96
2024-02-20T11:28:40.850Z,26.94
2024-02-20T11:29:40.538Z,26.91
2024-02-20T11:30:40.512Z,26.88
2024-02-20T11:31:40.599Z,26.86
2024-02-20T11:32:40.598Z,26.84
2024-02-20T11:33:40.712Z,26.82
2024-02-20T11:34:40.835Z,26.81
2024-02-20T11:35:43.235Z,26.80
2024-02-20T11:36:40.707Z,26.79
2024-02-20T11:37:49.097Z,26.78
2024-02-20T11:38:41.715Z,26.76
2024-02-20T11:39:40.720Z,26.74
2024-02-20T11:40:40.896Z,26.74
2024-02-20T11:41:42.775Z,26.72
2024-02-20T11:42:40.707Z,26.71
2024-02-20T11:43:40.724Z,26.69
2024-02-20T11:44:40.722Z,26.68
2024-02-20T11:45:40.714Z,26.66
2024-02-20T11:46:40.768Z,26.63
2024-02-20T11:47:40.780Z,26.62
2024-02-20T11:48:40.857Z,26.60
2024-02-20T11:49:40.753Z,26.59
2024-02-20T11:50:40.758Z,26.58
2024-02-20T11:51:40.734Z,26.57
2024-02-20T11:52:40.813Z,26.55
2024-02-20T11:53:40.758Z,26.54
2024-02-20T11:54:40.733Z,26.52
2024-02-20T11:55:40.924Z,26.51
2024-02-20T11:56:40.743Z,26.50
2024-02-20T11:57:40.744Z,26.49
2024-02-20T11:58:40.797Z,26.46
2024-02-20T11:59:40.747Z,26.45
2024-02-20T12:00:40.841Z,26.44
2024-02-20T12:01:40.951Z,26.40
2024-02-20T12:02:40.774Z,26.37
2024-02-20T12:03:40.758Z,26.35
2024-02-20T12:04:40.853Z,26.30
2024-02-20T12:05:40.889Z,26.26
2024-02-20T12:06:40.785Z,26.23
2024-02-20T12:07:40.877Z,26.20
2024-02-20T12:08:40.772Z,26.17
2024-02-20T12:09:40.769Z,26.14
2024-02-20T12:10:40.829Z,26.11
2024-02-20T12:11:40.801Z,26.09
2024-02-20T12:12:40.770Z,26.07
2024-02-20T12:13:40.970Z,26.06
2024-02-20T12:14:40.775Z,26.04
2024-02-20T12:15:40.768Z,26.03
2024-02-20T12:16:40.820Z,26.02
2024-02-20T12:17:40.816Z,26.02
2024-02-20T12:18:40.876Z,26.01
2024-02-20T12:19:40.859Z,26.00
2024-02-20T12:20:40.792Z,25.99
2024-02-20T12:21:40.790Z,25.99
2024-02-20T12:22:40.892Z,25.97
2024-02-20T12:23:40.792Z,25.96
2024-02-20T12:24:40.787Z,25.96
2024-02-20T12:25:40.831Z,25.94
2024-02-20T12:26:40.806Z,25.94
2024-02-20T12:27:40.799Z,25.93
2024-02-20T12:28:40.919Z,25.93
2024-02-20T12:29:40.779Z,25.92
2024-02-20T12:30:40.789Z,25.91
2024-02-20T12:31:40.845Z,25.89
2024-02-20T12:32:40.855Z,25.88
2024-02-20T12:33:40.889Z,25.87
2024-02-20T12:34:45.658Z,25.86
2024-02-20T12:35:41.887Z,25.85
2024-02-20T12:36:40.794Z,25.86
2024-02-20T12:37:40.847Z,25.85
2024-02-20T12:38:40.801Z,25.84
2024-02-20T12:39:40.794Z,25.83
2024-02-20T12:40:40.832Z,25.80
2024-02-20T12:41:40.805Z,25.80
2024-02-20T12:42:40.806Z,25.79
2024-02-20T12:43:40.852Z,25.78
2024-02-20T12:44:40.805Z,25.77
2024-02-20T12:45:40.819Z,25.76
2024-02-20T12:46:40.856Z,25.75
2024-02-20T12:47:40.856Z,25.74
2024-02-20T12:48:40.855Z,25.72
2024-02-20T12:49:40.921Z,25.71
2024-02-20T12:50:40.810Z,25.70
2024-02-20T12:51:40.802Z,25.69
2024-02-20T12:52:40.885Z,25.69